sensor_id;sensor_type;location;lat;lon;timestamp;P1;durP1;ratioP1;P2;durP2;ratioP2
75272;SDS011;63869;52.344;16.928;2023-01-29T00:02:02;18.37;;;9.03;;
75272;SDS011;63869;52.344;16.928;2023-01-29T00:04:28;18.15;;;8.50;;
75272;SDS011;63869;52.344;16.928;2023-01-29T00:06:54;17.33;;;8.77;;
75272;SDS011;63869;52.344;16.928;2023-01-29T00:09:19;17.92;;;8.57;;
75272;SDS011;63869;52.344;16.928;2023-01-29T00:11:44;15.87;;;7.80;;
75272;SDS011;63869;52.344;16.928;2023-01-29T00:14:10;16.87;;;7.73;;
75272;SDS011;63869;52.344;16.928;2023-01-29T00:16:35;16.57;;;7.90;;
75272;SDS011;63869;52.344;16.928;2023-01-29T00:19:01;16.55;;;8.13;;
75272;SDS011;63869;52.344;16.928;2023-01-29T00:21:27;18.02;;;8.45;;
75272;SDS011;63869;52.344;16.928;2023-01-29T00:23:54;20.67;;;9.50;;
75272;SDS011;63869;52.344;16.928;2023-01-29T00:26:20;26.27;;;10.85;;
75272;SDS011;63869;52.344;16.928;2023-01-29T00:28:46;20.57;;;9.27;;
75272;SDS011;63869;52.344;16.928;2023-01-29T00:31:13;20.17;;;9.97;;
75272;SDS011;63869;52.344;16.928;2023-01-29T00:33:43;15.95;;;8.20;;
75272;SDS011;63869;52.344;16.928;2023-01-29T00:36:10;16.58;;;8.23;;
75272;SDS011;63869;52.344;16.928;2023-01-29T00:38:37;16.75;;;8.30;;
75272;SDS011;63869;52.344;16.928;2023-01-29T00:41:10;18.27;;;8.30;;
75272;SDS011;63869;52.344;16.928;2023-01-29T00:43:55;18.13;;;8.07;;
75272;SDS011;63869;52.344;16.928;2023-01-29T00:46:40;15.65;;;7.80;;
75272;SDS011;63869;52.344;16.928;2023-01-29T00:49:05;18.93;;;8.07;;
75272;SDS011;63869;52.344;16.928;2023-01-29T00:51:32;17.17;;;7.90;;
75272;SDS011;63869;52.344;16.928;2023-01-29T00:53:57;20.37;;;8.57;;
75272;SDS011;63869;52.344;16.928;2023-01-29T00:56:23;19.17;;;8.43;;
75272;SDS011;63869;52.344;16.928;2023-01-29T00:58:49;19.58;;;8.50;;
75272;SDS011;63869;52.344;16.928;2023-01-29T01:01:15;20.17;;;9.00;;
75272;SDS011;63869;52.344;16.928;2023-01-29T01:03:40;15.57;;;7.73;;
75272;SDS011;63869;52.344;16.928;2023-01-29T01:06:08;17.60;;;7.82;;
75272;SDS011;63869;52.344;16.928;2023-01-29T01:08:34;15.52;;;7.40;;
75272;SDS011;63869;52.344;16.928;2023-01-29T01:11:18;15.88;;;8.30;;
75272;SDS011;63869;52.344;16.928;2023-01-29T01:13:46;18.30;;;8.30;;
75272;SDS011;63869;52.344;16.928;2023-01-29T01:16:12;19.43;;;8.30;;
75272;SDS011;63869;52.344;16.928;2023-01-29T01:18:38;17.80;;;8.55;;
75272;SDS011;63869;52.344;16.928;2023-01-29T01:21:04;17.17;;;8.17;;
75272;SDS011;63869;52.344;16.928;2023-01-29T01:23:29;17.52;;;8.15;;
75272;SDS011;63869;52.344;16.928;2023-01-29T01:25:55;17.50;;;8.27;;
75272;SDS011;63869;52.344;16.928;2023-01-29T01:28:20;14.70;;;7.73;;
75272;SDS011;63869;52.344;16.928;2023-01-29T01:30:47;17.05;;;8.15;;
75272;SDS011;63869;52.344;16.928;2023-01-29T01:33:12;15.15;;;7.40;;
75272;SDS011;63869;52.344;16.928;2023-01-29T01:35:38;14.33;;;7.13;;
75272;SDS011;63869;52.344;16.928;2023-01-29T01:38:03;14.98;;;7.63;;
75272;SDS011;63869;52.344;16.928;2023-01-29T01:40:28;14.07;;;7.13;;
75272;SDS011;63869;52.344;16.928;2023-01-29T01:42:55;14.60;;;7.40;;
75272;SDS011;63869;52.344;16.928;2023-01-29T01:45:31;14.68;;;7.38;;
75272;SDS011;63869;52.344;16.928;2023-01-29T01:48:02;14.83;;;7.80;;
75272;SDS011;63869;52.344;16.928;2023-01-29T01:53:13;19.90;;;8.98;;
75272;SDS011;63869;52.344;16.928;2023-01-29T01:55:44;17.20;;;7.97;;
75272;SDS011;63869;52.344;16.928;2023-01-29T01:58:23;16.73;;;7.70;;
75272;SDS011;63869;52.344;16.928;2023-01-29T02:00:54;16.38;;;8.32;;
75272;SDS011;63869;52.344;16.928;2023-01-29T02:03:20;16.83;;;8.18;;
75272;SDS011;63869;52.344;16.928;2023-01-29T02:06:06;17.00;;;8.15;;
75272;SDS011;63869;52.344;16.928;2023-01-29T02:08:55;18.10;;;7.70;;
75272;SDS011;63869;52.344;16.928;2023-01-29T02:11:53;15.52;;;7.65;;
75272;SDS011;63869;52.344;16.928;2023-01-29T02:14:18;16.63;;;8.27;;
75272;SDS011;63869;52.344;16.928;2023-01-29T02:16:44;17.38;;;8.20;;
75272;SDS011;63869;52.344;16.928;2023-01-29T02:19:12;16.13;;;7.60;;
75272;SDS011;63869;52.344;16.928;2023-01-29T02:21:49;15.60;;;7.90;;
75272;SDS011;63869;52.344;16.928;2023-01-29T02:24:26;17.35;;;8.00;;
75272;SDS011;63869;52.344;16.928;2023-01-29T02:27:12;17.02;;;7.90;;
75272;SDS011;63869;52.344;16.928;2023-01-29T02:29:51;14.95;;;7.88;;
75272;SDS011;63869;52.344;16.928;2023-01-29T02:32:28;17.52;;;8.25;;
75272;SDS011;63869;52.344;16.928;2023-01-29T02:35:18;14.15;;;7.78;;
75272;SDS011;63869;52.344;16.928;2023-01-29T02:40:44;17.07;;;8.50;;
75272;SDS011;63869;52.344;16.928;2023-01-29T02:46:23;16.47;;;8.70;;
75272;SDS011;63869;52.344;16.928;2023-01-29T02:49:00;22.70;;;9.87;;
75272;SDS011;63869;52.344;16.928;2023-01-29T02:51:37;20.92;;;9.85;;
75272;SDS011;63869;52.344;16.928;2023-01-29T02:54:13;19.27;;;10.07;;
75272;SDS011;63869;52.344;16.928;2023-01-29T02:56:50;21.13;;;9.63;;
75272;SDS011;63869;52.344;16.928;2023-01-29T02:59:24;16.98;;;9.02;;
75272;SDS011;63869;52.344;16.928;2023-01-29T03:02:00;17.67;;;9.10;;
75272;SDS011;63869;52.344;16.928;2023-01-29T03:04:30;17.77;;;8.90;;
75272;SDS011;63869;52.344;16.928;2023-01-29T03:07:02;16.98;;;8.70;;
75272;SDS011;63869;52.344;16.928;2023-01-29T03:09:32;16.30;;;8.85;;
75272;SDS011;63869;52.344;16.928;2023-01-29T03:12:05;19.38;;;8.82;;
75272;SDS011;63869;52.344;16.928;2023-01-29T03:14:42;20.43;;;9.27;;
75272;SDS011;63869;52.344;16.928;2023-01-29T03:17:40;17.85;;;8.77;;
75272;SDS011;63869;52.344;16.928;2023-01-29T03:20:07;17.23;;;8.60;;
75272;SDS011;63869;52.344;16.928;2023-01-29T03:22:38;16.60;;;8.20;;
75272;SDS011;63869;52.344;16.928;2023-01-29T03:25:07;16.10;;;8.15;;
75272;SDS011;63869;52.344;16.928;2023-01-29T03:27:54;15.02;;;7.85;;
75272;SDS011;63869;52.344;16.928;2023-01-29T03:30:46;15.57;;;8.40;;
75272;SDS011;63869;52.344;16.928;2023-01-29T03:33:38;16.42;;;7.93;;
75272;SDS011;63869;52.344;16.928;2023-01-29T03:36:25;15.75;;;8.30;;
75272;SDS011;63869;52.344;16.928;2023-01-29T03:39:12;16.65;;;8.60;;
75272;SDS011;63869;52.344;16.928;2023-01-29T03:42:01;15.93;;;8.00;;
75272;SDS011;63869;52.344;16.928;2023-01-29T03:47:19;18.45;;;8.30;;
75272;SDS011;63869;52.344;16.928;2023-01-29T03:49:58;14.40;;;7.75;;
75272;SDS011;63869;52.344;16.928;2023-01-29T03:52:34;15.17;;;7.83;;
75272;SDS011;63869;52.344;16.928;2023-01-29T03:57:44;14.43;;;7.95;;
75272;SDS011;63869;52.344;16.928;2023-01-29T04:00:29;13.77;;;7.90;;
75272;SDS011;63869;52.344;16.928;2023-01-29T04:05:33;15.45;;;7.32;;
75272;SDS011;63869;52.344;16.928;2023-01-29T04:08:08;13.15;;;7.28;;
75272;SDS011;63869;52.344;16.928;2023-01-29T04:10:36;13.52;;;7.68;;
75272;SDS011;63869;52.344;16.928;2023-01-29T04:13:05;14.45;;;7.60;;
75272;SDS011;63869;52.344;16.928;2023-01-29T04:15:36;13.70;;;7.68;;
75272;SDS011;63869;52.344;16.928;2023-01-29T04:18:06;15.88;;;7.70;;
75272;SDS011;63869;52.344;16.928;2023-01-29T04:20:31;15.13;;;7.13;;
75272;SDS011;63869;52.344;16.928;2023-01-29T04:22:57;41.67;;;20.27;;
75272;SDS011;63869;52.344;16.928;2023-01-29T04:25:23;13.83;;;7.13;;
75272;SDS011;63869;52.344;16.928;2023-01-29T04:41:13;14.45;;;7.72;;
75272;SDS011;63869;52.344;16.928;2023-01-29T04:43:51;15.73;;;7.60;;
75272;SDS011;63869;52.344;16.928;2023-01-29T04:46:25;12.57;;;7.00;;
75272;SDS011;63869;52.344;16.928;2023-01-29T04:49:31;13.00;;;7.00;;
75272;SDS011;63869;52.344;16.928;2023-01-29T05:00:21;13.00;;;6.90;;
75272;SDS011;63869;52.344;16.928;2023-01-29T05:02:54;11.88;;;6.57;;
75272;SDS011;63869;52.344;16.928;2023-01-29T05:05:20;13.43;;;7.00;;
75272;SDS011;63869;52.344;16.928;2023-01-29T05:07:46;12.33;;;6.90;;
75272;SDS011;63869;52.344;16.928;2023-01-29T05:10:13;12.77;;;7.07;;
75272;SDS011;63869;52.344;16.928;2023-01-29T05:12:42;16.52;;;7.80;;
75272;SDS011;63869;52.344;16.928;2023-01-29T05:15:13;13.70;;;7.22;;
75272;SDS011;63869;52.344;16.928;2023-01-29T05:17:43;13.93;;;7.53;;
75272;SDS011;63869;52.344;16.928;2023-01-29T05:20:09;11.67;;;6.97;;
75272;SDS011;63869;52.344;16.928;2023-01-29T05:22:36;14.80;;;6.80;;
75272;SDS011;63869;52.344;16.928;2023-01-29T05:25:10;12.98;;;7.03;;
75272;SDS011;63869;52.344;16.928;2023-01-29T05:27:45;13.80;;;6.53;;
75272;SDS011;63869;52.344;16.928;2023-01-29T05:30:32;14.25;;;7.15;;
75272;SDS011;63869;52.344;16.928;2023-01-29T05:32:59;12.75;;;7.25;;
75272;SDS011;63869;52.344;16.928;2023-01-29T05:35:25;12.48;;;6.57;;
75272;SDS011;63869;52.344;16.928;2023-01-29T05:37:52;12.23;;;7.18;;
75272;SDS011;63869;52.344;16.928;2023-01-29T05:40:19;12.82;;;7.15;;
75272;SDS011;63869;52.344;16.928;2023-01-29T05:42:44;15.53;;;7.20;;
75272;SDS011;63869;52.344;16.928;2023-01-29T05:45:09;12.85;;;7.32;;
75272;SDS011;63869;52.344;16.928;2023-01-29T05:47:35;12.45;;;7.40;;
75272;SDS011;63869;52.344;16.928;2023-01-29T05:50:00;12.00;;;6.60;;
75272;SDS011;63869;52.344;16.928;2023-01-29T05:52:25;14.23;;;7.53;;
75272;SDS011;63869;52.344;16.928;2023-01-29T05:54:51;23.30;;;10.40;;
75272;SDS011;63869;52.344;16.928;2023-01-29T05:57:16;28.73;;;12.03;;
75272;SDS011;63869;52.344;16.928;2023-01-29T05:59:41;21.33;;;9.10;;
75272;SDS011;63869;52.344;16.928;2023-01-29T06:02:06;15.17;;;7.63;;
75272;SDS011;63869;52.344;16.928;2023-01-29T06:04:32;14.70;;;7.83;;
75272;SDS011;63869;52.344;16.928;2023-01-29T06:06:57;14.97;;;7.60;;
75272;SDS011;63869;52.344;16.928;2023-01-29T06:09:23;14.03;;;7.73;;
75272;SDS011;63869;52.344;16.928;2023-01-29T06:11:48;14.10;;;7.47;;
75272;SDS011;63869;52.344;16.928;2023-01-29T06:14:13;14.80;;;8.13;;
75272;SDS011;63869;52.344;16.928;2023-01-29T06:16:39;15.43;;;8.30;;
75272;SDS011;63869;52.344;16.928;2023-01-29T06:19:04;18.00;;;8.37;;
75272;SDS011;63869;52.344;16.928;2023-01-29T06:21:31;16.15;;;8.50;;
75272;SDS011;63869;52.344;16.928;2023-01-29T06:23:56;16.63;;;8.40;;
75272;SDS011;63869;52.344;16.928;2023-01-29T06:26:21;15.17;;;8.63;;
75272;SDS011;63869;52.344;16.928;2023-01-29T06:28:49;15.90;;;8.67;;
75272;SDS011;63869;52.344;16.928;2023-01-29T06:31:15;15.20;;;9.00;;
75272;SDS011;63869;52.344;16.928;2023-01-29T06:33:40;17.27;;;9.03;;
75272;SDS011;63869;52.344;16.928;2023-01-29T06:36:06;16.63;;;8.83;;
75272;SDS011;63869;52.344;16.928;2023-01-29T06:38:31;17.77;;;9.20;;
75272;SDS011;63869;52.344;16.928;2023-01-29T06:40:57;15.83;;;8.97;;
75272;SDS011;63869;52.344;16.928;2023-01-29T06:43:23;17.53;;;9.27;;
75272;SDS011;63869;52.344;16.928;2023-01-29T06:45:52;17.70;;;9.47;;
75272;SDS011;63869;52.344;16.928;2023-01-29T06:48:19;20.88;;;9.98;;
75272;SDS011;63869;52.344;16.928;2023-01-29T06:50:45;19.83;;;10.68;;
75272;SDS011;63869;52.344;16.928;2023-01-29T06:53:12;20.80;;;12.18;;
75272;SDS011;63869;52.344;16.928;2023-01-29T06:55:37;21.97;;;11.67;;
75272;SDS011;63869;52.344;16.928;2023-01-29T06:58:03;22.53;;;10.90;;
75272;SDS011;63869;52.344;16.928;2023-01-29T07:00:30;18.77;;;10.73;;
75272;SDS011;63869;52.344;16.928;2023-01-29T07:02:56;19.93;;;10.27;;
75272;SDS011;63869;52.344;16.928;2023-01-29T07:05:21;21.77;;;11.40;;
75272;SDS011;63869;52.344;16.928;2023-01-29T07:07:46;19.77;;;10.87;;
75272;SDS011;63869;52.344;16.928;2023-01-29T07:10:11;22.33;;;12.07;;
75272;SDS011;63869;52.344;16.928;2023-01-29T07:12:37;22.23;;;11.83;;
75272;SDS011;63869;52.344;16.928;2023-01-29T07:15:02;22.13;;;11.47;;
75272;SDS011;63869;52.344;16.928;2023-01-29T07:17:28;23.90;;;13.00;;
75272;SDS011;63869;52.344;16.928;2023-01-29T07:19:53;22.47;;;12.03;;
75272;SDS011;63869;52.344;16.928;2023-01-29T07:22:18;19.88;;;11.60;;
75272;SDS011;63869;52.344;16.928;2023-01-29T07:24:43;22.27;;;12.30;;
75272;SDS011;63869;52.344;16.928;2023-01-29T07:27:09;26.37;;;11.90;;
75272;SDS011;63869;52.344;16.928;2023-01-29T07:29:34;20.63;;;11.80;;
75272;SDS011;63869;52.344;16.928;2023-01-29T07:31:59;23.40;;;11.97;;
75272;SDS011;63869;52.344;16.928;2023-01-29T07:34:25;22.80;;;11.60;;
75272;SDS011;63869;52.344;16.928;2023-01-29T07:36:53;24.90;;;12.33;;
75272;SDS011;63869;52.344;16.928;2023-01-29T07:39:19;21.55;;;11.95;;
75272;SDS011;63869;52.344;16.928;2023-01-29T07:41:45;24.77;;;13.05;;
75272;SDS011;63869;52.344;16.928;2023-01-29T07:44:10;25.97;;;14.03;;
75272;SDS011;63869;52.344;16.928;2023-01-29T07:46:35;24.13;;;14.15;;
75272;SDS011;63869;52.344;16.928;2023-01-29T07:49:01;22.53;;;12.63;;
75272;SDS011;63869;52.344;16.928;2023-01-29T07:51:26;25.17;;;13.27;;
75272;SDS011;63869;52.344;16.928;2023-01-29T07:53:53;28.95;;;14.90;;
75272;SDS011;63869;52.344;16.928;2023-01-29T07:56:18;28.97;;;15.63;;
75272;SDS011;63869;52.344;16.928;2023-01-29T07:58:43;27.93;;;14.17;;
75272;SDS011;63869;52.344;16.928;2023-01-29T08:01:09;23.03;;;12.60;;
75272;SDS011;63869;52.344;16.928;2023-01-29T08:03:34;22.70;;;12.73;;
75272;SDS011;63869;52.344;16.928;2023-01-29T08:06:00;22.33;;;12.68;;
75272;SDS011;63869;52.344;16.928;2023-01-29T08:08:25;23.23;;;13.23;;
75272;SDS011;63869;52.344;16.928;2023-01-29T08:10:50;19.90;;;11.97;;
75272;SDS011;63869;52.344;16.928;2023-01-29T08:13:16;23.57;;;12.33;;
75272;SDS011;63869;52.344;16.928;2023-01-29T08:15:42;23.90;;;13.23;;
75272;SDS011;63869;52.344;16.928;2023-01-29T08:18:09;23.08;;;12.80;;
75272;SDS011;63869;52.344;16.928;2023-01-29T08:20:34;23.03;;;13.50;;
75272;SDS011;63869;52.344;16.928;2023-01-29T08:23:02;25.35;;;12.48;;
75272;SDS011;63869;52.344;16.928;2023-01-29T08:25:28;22.58;;;12.68;;
75272;SDS011;63869;52.344;16.928;2023-01-29T08:27:55;23.13;;;12.45;;
75272;SDS011;63869;52.344;16.928;2023-01-29T08:30:22;22.35;;;12.93;;
75272;SDS011;63869;52.344;16.928;2023-01-29T08:32:47;23.27;;;13.63;;
75272;SDS011;63869;52.344;16.928;2023-01-29T08:35:12;23.90;;;12.90;;
75272;SDS011;63869;52.344;16.928;2023-01-29T08:37:37;23.53;;;13.60;;
75272;SDS011;63869;52.344;16.928;2023-01-29T08:40:03;24.50;;;13.13;;
75272;SDS011;63869;52.344;16.928;2023-01-29T08:42:29;21.85;;;12.25;;
75272;SDS011;63869;52.344;16.928;2023-01-29T08:44:54;22.83;;;12.83;;
75272;SDS011;63869;52.344;16.928;2023-01-29T08:47:19;24.27;;;13.67;;
75272;SDS011;63869;52.344;16.928;2023-01-29T08:49:44;26.70;;;14.47;;
75272;SDS011;63869;52.344;16.928;2023-01-29T08:52:11;23.20;;;12.93;;
75272;SDS011;63869;52.344;16.928;2023-01-29T08:54:36;23.67;;;12.73;;
75272;SDS011;63869;52.344;16.928;2023-01-29T08:57:01;24.37;;;12.97;;
75272;SDS011;63869;52.344;16.928;2023-01-29T08:59:27;26.47;;;13.20;;
75272;SDS011;63869;52.344;16.928;2023-01-29T09:01:52;25.50;;;13.65;;
75272;SDS011;63869;52.344;16.928;2023-01-29T09:04:17;24.53;;;13.63;;
75272;SDS011;63869;52.344;16.928;2023-01-29T09:06:43;24.53;;;13.67;;
75272;SDS011;63869;52.344;16.928;2023-01-29T09:09:08;26.23;;;14.95;;
75272;SDS011;63869;52.344;16.928;2023-01-29T09:11:33;25.60;;;13.90;;
75272;SDS011;63869;52.344;16.928;2023-01-29T09:13:58;25.43;;;13.30;;
75272;SDS011;63869;52.344;16.928;2023-01-29T09:16:24;23.00;;;13.63;;
75272;SDS011;63869;52.344;16.928;2023-01-29T09:18:49;24.33;;;13.63;;
75272;SDS011;63869;52.344;16.928;2023-01-29T09:21:14;23.33;;;13.17;;
75272;SDS011;63869;52.344;16.928;2023-01-29T09:23:40;22.40;;;13.33;;
75272;SDS011;63869;52.344;16.928;2023-01-29T09:26:06;28.97;;;14.03;;
75272;SDS011;63869;52.344;16.928;2023-01-29T09:28:32;25.45;;;14.88;;
75272;SDS011;63869;52.344;16.928;2023-01-29T09:30:59;27.97;;;15.87;;
75272;SDS011;63869;52.344;16.928;2023-01-29T09:33:26;24.90;;;13.95;;
75272;SDS011;63869;52.344;16.928;2023-01-29T09:35:51;24.70;;;13.70;;
75272;SDS011;63869;52.344;16.928;2023-01-29T09:38:16;27.53;;;16.67;;
75272;SDS011;63869;52.344;16.928;2023-01-29T09:41:05;32.43;;;17.53;;
75272;SDS011;63869;52.344;16.928;2023-01-29T09:43:35;31.10;;;16.08;;
75272;SDS011;63869;52.344;16.928;2023-01-29T09:46:11;26.42;;;14.90;;
75272;SDS011;63869;52.344;16.928;2023-01-29T09:48:43;26.80;;;14.90;;
75272;SDS011;63869;52.344;16.928;2023-01-29T09:51:24;28.13;;;15.43;;
75272;SDS011;63869;52.344;16.928;2023-01-29T09:54:01;25.98;;;14.20;;
75272;SDS011;63869;52.344;16.928;2023-01-29T09:56:36;24.30;;;15.05;;
75272;SDS011;63869;52.344;16.928;2023-01-29T09:59:01;29.50;;;17.60;;
75272;SDS011;63869;52.344;16.928;2023-01-29T10:01:36;27.20;;;14.90;;
75272;SDS011;63869;52.344;16.928;2023-01-29T10:09:32;29.38;;;16.20;;
75272;SDS011;63869;52.344;16.928;2023-01-29T10:12:24;29.08;;;16.33;;
75272;SDS011;63869;52.344;16.928;2023-01-29T10:25:25;100.35;;;48.35;;
75272;SDS011;63869;52.344;16.928;2023-01-29T10:27:56;38.47;;;23.20;;
75272;SDS011;63869;52.344;16.928;2023-01-29T10:30:32;51.53;;;29.08;;
75272;SDS011;63869;52.344;16.928;2023-01-29T10:33:06;35.85;;;19.83;;
75272;SDS011;63869;52.344;16.928;2023-01-29T10:35:40;43.28;;;23.58;;
75272;SDS011;63869;52.344;16.928;2023-01-29T10:40:46;31.45;;;18.75;;
75272;SDS011;63869;52.344;16.928;2023-01-29T10:43:27;30.30;;;17.63;;
75272;SDS011;63869;52.344;16.928;2023-01-29T10:54:53;30.85;;;15.70;;
75272;SDS011;63869;52.344;16.928;2023-01-29T11:02:50;32.83;;;18.42;;
75272;SDS011;63869;52.344;16.928;2023-01-29T11:05:18;31.48;;;16.65;;
75272;SDS011;63869;52.344;16.928;2023-01-29T11:08:09;39.45;;;20.83;;
75272;SDS011;63869;52.344;16.928;2023-01-29T11:10:41;54.42;;;26.58;;
75272;SDS011;63869;52.344;16.928;2023-01-29T11:13:17;53.08;;;31.60;;
75272;SDS011;63869;52.344;16.928;2023-01-29T11:15:42;37.00;;;23.08;;
75272;SDS011;63869;52.344;16.928;2023-01-29T11:18:12;51.17;;;31.77;;
75272;SDS011;63869;52.344;16.928;2023-01-29T11:20:40;40.72;;;23.55;;
75272;SDS011;63869;52.344;16.928;2023-01-29T11:23:26;33.35;;;18.52;;
75272;SDS011;63869;52.344;16.928;2023-01-29T11:25:54;35.38;;;19.65;;
75272;SDS011;63869;52.344;16.928;2023-01-29T11:28:34;34.92;;;18.40;;
75272;SDS011;63869;52.344;16.928;2023-01-29T11:31:01;34.35;;;18.80;;
75272;SDS011;63869;52.344;16.928;2023-01-29T11:33:27;32.50;;;18.05;;
75272;SDS011;63869;52.344;16.928;2023-01-29T11:35:53;33.07;;;18.53;;
75272;SDS011;63869;52.344;16.928;2023-01-29T11:38:23;36.38;;;19.23;;
75272;SDS011;63869;52.344;16.928;2023-01-29T11:40:50;32.53;;;17.42;;
75272;SDS011;63869;52.344;16.928;2023-01-29T11:43:21;37.78;;;20.90;;
75272;SDS011;63869;52.344;16.928;2023-01-29T11:45:52;37.15;;;21.52;;
75272;SDS011;63869;52.344;16.928;2023-01-29T11:48:21;32.08;;;17.13;;
75272;SDS011;63869;52.344;16.928;2023-01-29T11:50:50;35.55;;;19.85;;
75272;SDS011;63869;52.344;16.928;2023-01-29T11:53:32;34.50;;;19.30;;
75272;SDS011;63869;52.344;16.928;2023-01-29T11:56:21;32.20;;;19.20;;
75272;SDS011;63869;52.344;16.928;2023-01-29T11:58:51;33.23;;;18.40;;
75272;SDS011;63869;52.344;16.928;2023-01-29T12:01:22;33.25;;;19.00;;
75272;SDS011;63869;52.344;16.928;2023-01-29T12:03:54;33.85;;;18.13;;
75272;SDS011;63869;52.344;16.928;2023-01-29T12:06:23;35.40;;;19.80;;
75272;SDS011;63869;52.344;16.928;2023-01-29T12:08:59;33.38;;;19.52;;
75272;SDS011;63869;52.344;16.928;2023-01-29T12:11:33;34.13;;;18.35;;
75272;SDS011;63869;52.344;16.928;2023-01-29T12:14:00;35.42;;;20.30;;
75272;SDS011;63869;52.344;16.928;2023-01-29T12:19:10;35.93;;;19.87;;
75272;SDS011;63869;52.344;16.928;2023-01-29T12:21:52;38.75;;;19.67;;
75272;SDS011;63869;52.344;16.928;2023-01-29T12:27:15;39.97;;;21.67;;
75272;SDS011;63869;52.344;16.928;2023-01-29T12:29:51;37.40;;;21.38;;
75272;SDS011;63869;52.344;16.928;2023-01-29T12:32:38;40.30;;;21.70;;
75272;SDS011;63869;52.344;16.928;2023-01-29T12:35:18;38.92;;;20.25;;
75272;SDS011;63869;52.344;16.928;2023-01-29T12:40:20;42.05;;;22.65;;
75272;SDS011;63869;52.344;16.928;2023-01-29T12:42:52;40.28;;;23.45;;
75272;SDS011;63869;52.344;16.928;2023-01-29T12:45:23;54.45;;;28.08;;
75272;SDS011;63869;52.344;16.928;2023-01-29T12:47:57;50.97;;;27.13;;
75272;SDS011;63869;52.344;16.928;2023-01-29T12:50:32;54.17;;;28.00;;
75272;SDS011;63869;52.344;16.928;2023-01-29T12:55:48;45.17;;;23.65;;
75272;SDS011;63869;52.344;16.928;2023-01-29T12:58:30;76.13;;;36.58;;
75272;SDS011;63869;52.344;16.928;2023-01-29T13:01:02;107.65;;;47.33;;
75272;SDS011;63869;52.344;16.928;2023-01-29T13:04:05;54.00;;;27.20;;
75272;SDS011;63869;52.344;16.928;2023-01-29T13:06:39;46.75;;;23.50;;
75272;SDS011;63869;52.344;16.928;2023-01-29T13:09:10;43.28;;;23.48;;
75272;SDS011;63869;52.344;16.928;2023-01-29T13:12:00;45.97;;;24.27;;
75272;SDS011;63869;52.344;16.928;2023-01-29T13:14:42;53.65;;;27.02;;
75272;SDS011;63869;52.344;16.928;2023-01-29T13:17:35;84.63;;;40.15;;
75272;SDS011;63869;52.344;16.928;2023-01-29T13:20:12;49.15;;;26.98;;
75272;SDS011;63869;52.344;16.928;2023-01-29T13:22:43;49.25;;;27.13;;
75272;SDS011;63869;52.344;16.928;2023-01-29T13:25:14;41.28;;;22.50;;
75272;SDS011;63869;52.344;16.928;2023-01-29T13:27:41;43.28;;;24.15;;
75272;SDS011;63869;52.344;16.928;2023-01-29T13:30:22;40.40;;;21.85;;
75272;SDS011;63869;52.344;16.928;2023-01-29T13:32:50;39.65;;;22.42;;
75272;SDS011;63869;52.344;16.928;2023-01-29T13:35:19;41.75;;;22.15;;
75272;SDS011;63869;52.344;16.928;2023-01-29T13:37:48;39.95;;;20.63;;
75272;SDS011;63869;52.344;16.928;2023-01-29T13:40:24;38.22;;;20.67;;
75272;SDS011;63869;52.344;16.928;2023-01-29T13:42:51;41.40;;;21.35;;
75272;SDS011;63869;52.344;16.928;2023-01-29T13:47:53;42.30;;;21.42;;
75272;SDS011;63869;52.344;16.928;2023-01-29T13:50:40;38.58;;;20.67;;
75272;SDS011;63869;52.344;16.928;2023-01-29T13:53:07;35.97;;;20.08;;
75272;SDS011;63869;52.344;16.928;2023-01-29T13:55:43;36.60;;;20.40;;
75272;SDS011;63869;52.344;16.928;2023-01-29T14:00:57;34.65;;;19.35;;
75272;SDS011;63869;52.344;16.928;2023-01-29T14:13:43;78.20;;;42.20;;
75272;SDS011;63869;52.344;16.928;2023-01-29T14:18:35;69.83;;;38.00;;
75272;SDS011;63869;52.344;16.928;2023-01-29T14:23:48;39.10;;;21.45;;
75272;SDS011;63869;52.344;16.928;2023-01-29T14:29:01;40.50;;;22.47;;
75272;SDS011;63869;52.344;16.928;2023-01-29T14:34:16;42.97;;;22.73;;
75272;SDS011;63869;52.344;16.928;2023-01-29T14:36:44;40.00;;;21.95;;
75272;SDS011;63869;52.344;16.928;2023-01-29T14:42:01;43.97;;;23.80;;
75272;SDS011;63869;52.344;16.928;2023-01-29T14:50:02;42.97;;;23.23;;
75272;SDS011;63869;52.344;16.928;2023-01-29T14:52:57;38.17;;;22.15;;
75272;SDS011;63869;52.344;16.928;2023-01-29T14:55:43;42.92;;;23.42;;
75272;SDS011;63869;52.344;16.928;2023-01-29T14:58:15;45.75;;;23.05;;
75272;SDS011;63869;52.344;16.928;2023-01-29T15:00:48;43.75;;;23.33;;
75272;SDS011;63869;52.344;16.928;2023-01-29T15:03:21;40.63;;;21.48;;
75272;SDS011;63869;52.344;16.928;2023-01-29T15:05:57;40.40;;;21.42;;
75272;SDS011;63869;52.344;16.928;2023-01-29T15:08:36;39.08;;;21.63;;
75272;SDS011;63869;52.344;16.928;2023-01-29T15:11:12;39.60;;;20.53;;
75272;SDS011;63869;52.344;16.928;2023-01-29T15:17:17;40.53;;;21.40;;
75272;SDS011;63869;52.344;16.928;2023-01-29T15:19:48;41.10;;;21.73;;
75272;SDS011;63869;52.344;16.928;2023-01-29T15:22:15;45.47;;;22.90;;
75272;SDS011;63869;52.344;16.928;2023-01-29T15:24:42;43.80;;;22.70;;
75272;SDS011;63869;52.344;16.928;2023-01-29T15:27:14;42.23;;;22.77;;
75272;SDS011;63869;52.344;16.928;2023-01-29T15:29:43;40.60;;;21.02;;
75272;SDS011;63869;52.344;16.928;2023-01-29T15:32:14;70.30;;;32.65;;
75272;SDS011;63869;52.344;16.928;2023-01-29T15:34:51;44.75;;;22.50;;
75272;SDS011;63869;52.344;16.928;2023-01-29T15:37:31;43.38;;;22.02;;
75272;SDS011;63869;52.344;16.928;2023-01-29T15:39:58;93.65;;;35.72;;
75272;SDS011;63869;52.344;16.928;2023-01-29T15:42:25;50.75;;;25.98;;
75272;SDS011;63869;52.344;16.928;2023-01-29T15:45:18;41.75;;;22.05;;
75272;SDS011;63869;52.344;16.928;2023-01-29T15:47:45;82.47;;;33.55;;
75272;SDS011;63869;52.344;16.928;2023-01-29T15:50:10;70.10;;;30.67;;
75272;SDS011;63869;52.344;16.928;2023-01-29T15:52:36;47.60;;;25.00;;
75272;SDS011;63869;52.344;16.928;2023-01-29T15:55:03;56.00;;;26.85;;
75272;SDS011;63869;52.344;16.928;2023-01-29T15:57:33;38.47;;;21.40;;
75272;SDS011;63869;52.344;16.928;2023-01-29T16:00:02;81.55;;;37.90;;
75272;SDS011;63869;52.344;16.928;2023-01-29T16:02:39;64.05;;;32.25;;
75272;SDS011;63869;52.344;16.928;2023-01-29T16:05:06;59.08;;;32.95;;
75272;SDS011;63869;52.344;16.928;2023-01-29T16:07:37;53.67;;;29.67;;
75272;SDS011;63869;52.344;16.928;2023-01-29T16:10:04;50.88;;;26.95;;
75272;SDS011;63869;52.344;16.928;2023-01-29T16:12:31;61.83;;;35.27;;
75272;SDS011;63869;52.344;16.928;2023-01-29T16:14:57;42.60;;;24.38;;
75272;SDS011;63869;52.344;16.928;2023-01-29T16:17:24;40.00;;;22.05;;
75272;SDS011;63869;52.344;16.928;2023-01-29T16:19:54;43.70;;;22.53;;
75272;SDS011;63869;52.344;16.928;2023-01-29T16:22:24;41.33;;;22.42;;
75272;SDS011;63869;52.344;16.928;2023-01-29T16:24:53;47.03;;;22.35;;
75272;SDS011;63869;52.344;16.928;2023-01-29T16:27:18;44.07;;;22.10;;
75272;SDS011;63869;52.344;16.928;2023-01-29T16:29:44;40.93;;;21.90;;
75272;SDS011;63869;52.344;16.928;2023-01-29T16:32:09;39.40;;;21.13;;
75272;SDS011;63869;52.344;16.928;2023-01-29T16:34:38;40.22;;;22.55;;